Aérodrome :
LOGIN :

S'inscrire | Disclaimer

   EN    FR    IT 

 










Légende :    VFR   VFR Marginal   IFR   IFR Intensif   IFR Très Intensif
Visi : 
Plafond : 
>= 8 km
>= 3000ft
5 à 8 km
1000 à 3000 ft
1500m à 5 km
500 à 1000 ft
800 à 1500m
200 à 500 ft
< 800m
< 200 ft
Symboles :   Orages  Brouillard  Fortes neiges  Fortes précipitations  Vent > 20 kt
SIGMETs :   Divers  Orages  Givrage  Turbulence  Onde Orograph.  Cendres Volcan.







- Altitude de l'aérodrome : 90 ft
- Code IATA : NTE
- Voir les cartes d'approche


LFRS - Nantes

DERNIER METAR :
  • 221800Z AUTO 24015G26KT 200V280 9999 OVC010 20/18 Q1019 TEMPO 2500 -RADZ

METARs EXPIRÉS :
  • 221730Z AUTO 24013G24KT 9999 OVC009 19/18 Q1018 TEMPO 2500 -RADZ
  • 221700Z AUTO 24014KT 9999 BKN010 OVC014 19/18 Q1018 TEMPO 23015G27KT 2500 -RADZ OVC003
  • 221630Z AUTO 23010KT 180V250 9999 OVC009 19/18 Q1018 TEMPO 23015G27KT 2500 -RADZ OVC003
  • 221600Z AUTO 21011KT 9999 -DZ OVC010 17/17 Q1018 TEMPO 23015G27KT 2500 -RADZ OVC003
  • 221530Z AUTO 20013KT 9999 OVC011 17/16 Q1019 TEMPO 23015G27KT 2500 -RADZ OVC003

TAF TAF LFRS
Valide du 22 à 18h jusqu'au 24 à 00h UTC


221700Z 2218/2324 21012KT 9999 BKN012
PROB30
TEMPO 2218/2224 23015G25KT
TEMPO 2218/2315 2500 -RADZ OVC005
TEMPO 2310/2314 24015G25KT
BECMG 2314/2316 36013KT BKN020
TEMPO 2314/2319 34015G25KT
BECMG 2318/2320 CAVOK
ATIS : +33 2 40 05 12 74
Pas de NOTAMs connus pour ce terrain.
1 SIGMET publié pour la FIR Brest (LFRR) :
 
Turbulence forte
LFRR SIGMET 3 VALID 221600/222000 LFPW
LFRR BREST FIR/UIR SEV TURB FCST WI N4915 W00015 - N4815 W00015 - N4815 W00300 - N4915 W00230 - N4915 W00015 SFC/FL060 MOV E 15KT WKN=



MET'MAP, la Météo Aéronautique d'un coup d'oeil ! - Copyright ORBIFLY Décembre 2007 - Disclaimer

ORBIFLY MET'MAP TEAM :

Programmation & Développement : Alexandra Zaïnal
Conception & Développement : Baudouin d'Aumeries
Co-Programmation & Développement : Marc-Olivier Méhu
Soutien technique & logistique : Manuel Goepfert

Contact : metmap@orbifly.com




SOURCES & CREDITS :

   NOAA